sensor_id;sensor_type;location;lat;lon;timestamp;pressure;altitude;pressure_sealevel;temperature;humidity
9139;BME280;4604;48.616;9.548;2022-09-13T00:01:44;96565.81;;;17.70;64.72
9139;BME280;4604;48.616;9.548;2022-09-13T00:04:11;96554.72;;;17.66;64.85
9139;BME280;4604;48.616;9.548;2022-09-13T00:06:37;96548.09;;;17.62;65.01
9139;BME280;4604;48.616;9.548;2022-09-13T00:09:04;96542.34;;;17.59;65.24
9139;BME280;4604;48.616;9.548;2022-09-13T00:11:31;96527.38;;;17.64;65.12
9139;BME280;4604;48.616;9.548;2022-09-13T00:14:01;96518.88;;;17.75;64.63
9139;BME280;4604;48.616;9.548;2022-09-13T00:16:28;96513.28;;;17.70;64.53
9139;BME280;4604;48.616;9.548;2022-09-13T00:18:55;96501.56;;;17.71;64.59
9139;BME280;4604;48.616;9.548;2022-09-13T00:21:23;96508.72;;;17.64;64.76
9139;BME280;4604;48.616;9.548;2022-09-13T00:23:51;96501.91;;;17.62;65.18
9139;BME280;4604;48.616;9.548;2022-09-13T00:26:20;96500.00;;;17.55;65.47
9139;BME280;4604;48.616;9.548;2022-09-13T00:28:48;96506.94;;;17.50;65.79
9139;BME280;4604;48.616;9.548;2022-09-13T00:31:16;96502.41;;;17.44;66.05
9139;BME280;4604;48.616;9.548;2022-09-13T00:33:43;96502.34;;;17.37;66.66
9139;BME280;4604;48.616;9.548;2022-09-13T00:36:10;96486.91;;;17.32;66.89
9139;BME280;4604;48.616;9.548;2022-09-13T00:38:38;96493.84;;;17.27;67.38
9139;BME280;4604;48.616;9.548;2022-09-13T00:41:07;96490.53;;;17.25;67.66
9139;BME280;4604;48.616;9.548;2022-09-13T00:43:42;96499.94;;;17.21;68.04
9139;BME280;4604;48.616;9.548;2022-09-13T00:46:11;96499.19;;;17.05;68.66
9139;BME280;4604;48.616;9.548;2022-09-13T00:48:40;96501.22;;;17.03;68.73
9139;BME280;4604;48.616;9.548;2022-09-13T00:51:08;96509.53;;;16.94;69.20
9139;BME280;4604;48.616;9.548;2022-09-13T00:53:38;96501.09;;;16.90;69.07
9139;BME280;4604;48.616;9.548;2022-09-13T00:56:08;96503.16;;;16.95;68.31
9139;BME280;4604;48.616;9.548;2022-09-13T00:58:40;96506.94;;;17.00;67.76
9139;BME280;4604;48.616;9.548;2022-09-13T01:01:12;96512.69;;;17.04;67.44
9139;BME280;4604;48.616;9.548;2022-09-13T01:03:42;96518.41;;;17.01;67.39
9139;BME280;4604;48.616;9.548;2022-09-13T01:06:11;96518.34;;;16.94;68.68
9139;BME280;4604;48.616;9.548;2022-09-13T01:08:39;96535.44;;;16.85;69.26
9139;BME280;4604;48.616;9.548;2022-09-13T01:11:10;96514.53;;;16.67;69.97
9139;BME280;4604;48.616;9.548;2022-09-13T01:13:39;96503.47;;;16.48;70.49
9139;BME280;4604;48.616;9.548;2022-09-13T01:16:07;96519.06;;;16.52;71.08
9139;BME280;4604;48.616;9.548;2022-09-13T01:18:34;96516.88;;;16.40;71.84
9139;BME280;4604;48.616;9.548;2022-09-13T01:21:41;96483.84;;;16.20;72.65
9139;BME280;4604;48.616;9.548;2022-09-13T01:24:43;96494.28;;;16.21;73.36
9139;BME280;4604;48.616;9.548;2022-09-13T01:27:27;96483.47;;;16.08;73.91
9139;BME280;4604;48.616;9.548;2022-09-13T01:30:06;96483.50;;;15.93;74.56
9139;BME280;4604;48.616;9.548;2022-09-13T01:32:43;96483.41;;;15.87;75.15
9139;BME280;4604;48.616;9.548;2022-09-13T01:35:21;96487.53;;;15.74;75.97
9139;BME280;4604;48.616;9.548;2022-09-13T01:37:55;96487.06;;;15.71;76.50
9139;BME280;4604;48.616;9.548;2022-09-13T01:40:46;96484.09;;;15.66;76.70
9139;BME280;4604;48.616;9.548;2022-09-13T01:43:30;96481.13;;;15.60;76.95
9139;BME280;4604;48.616;9.548;2022-09-13T01:46:04;96486.38;;;15.54;77.50
9139;BME280;4604;48.616;9.548;2022-09-13T01:48:39;96478.00;;;15.42;78.07
9139;BME280;4604;48.616;9.548;2022-09-13T01:51:16;96471.47;;;15.30;78.60
9139;BME280;4604;48.616;9.548;2022-09-13T01:53:54;96486.13;;;15.26;79.39
9139;BME280;4604;48.616;9.548;2022-09-13T01:56:32;96489.97;;;15.23;79.91
9139;BME280;4604;48.616;9.548;2022-09-13T01:59:05;96497.66;;;15.18;80.93
9139;BME280;4604;48.616;9.548;2022-09-13T02:01:39;96490.56;;;15.10;80.54
9139;BME280;4604;48.616;9.548;2022-09-13T02:04:12;96504.16;;;15.15;80.89
9139;BME280;4604;48.616;9.548;2022-09-13T02:06:45;96507.47;;;15.17;81.05
9139;BME280;4604;48.616;9.548;2022-09-13T02:09:15;96505.78;;;15.16;80.96
9139;BME280;4604;48.616;9.548;2022-09-13T02:11:46;96503.75;;;15.04;81.50
9139;BME280;4604;48.616;9.548;2022-09-13T02:14:15;96509.59;;;14.99;81.80
9139;BME280;4604;48.616;9.548;2022-09-13T02:16:48;96500.66;;;14.92;82.07
9139;BME280;4604;48.616;9.548;2022-09-13T02:19:22;96492.09;;;14.82;82.61
9139;BME280;4604;48.616;9.548;2022-09-13T02:21:53;96486.94;;;14.80;82.88
9139;BME280;4604;48.616;9.548;2022-09-13T02:24:25;96507.38;;;14.80;82.98
9139;BME280;4604;48.616;9.548;2022-09-13T02:26:55;96506.28;;;14.74;83.28
9139;BME280;4604;48.616;9.548;2022-09-13T02:29:25;96505.31;;;14.67;83.46
9139;BME280;4604;48.616;9.548;2022-09-13T02:31:58;96506.19;;;14.59;84.21
9139;BME280;4604;48.616;9.548;2022-09-13T02:34:30;96504.06;;;14.54;84.62
9139;BME280;4604;48.616;9.548;2022-09-13T02:37:02;96504.72;;;14.48;84.97
9139;BME280;4604;48.616;9.548;2022-09-13T02:39:31;96505.25;;;14.44;85.37
9139;BME280;4604;48.616;9.548;2022-09-13T02:42:07;96501.13;;;14.33;85.40
9139;BME280;4604;48.616;9.548;2022-09-13T02:44:39;96522.22;;;14.34;85.45
9139;BME280;4604;48.616;9.548;2022-09-13T02:47:15;96511.81;;;14.25;86.57
9139;BME280;4604;48.616;9.548;2022-09-13T02:49:54;96522.56;;;14.31;86.32
9139;BME280;4604;48.616;9.548;2022-09-13T02:52:33;96515.78;;;14.29;86.29
9139;BME280;4604;48.616;9.548;2022-09-13T02:55:10;96509.97;;;14.25;86.34
9139;BME280;4604;48.616;9.548;2022-09-13T02:57:50;96508.19;;;14.18;86.87
9139;BME280;4604;48.616;9.548;2022-09-13T03:00:19;96515.00;;;14.12;87.22
9139;BME280;4604;48.616;9.548;2022-09-13T03:02:48;96504.59;;;14.02;87.79
9139;BME280;4604;48.616;9.548;2022-09-13T03:05:17;96508.44;;;14.00;88.29
9139;BME280;4604;48.616;9.548;2022-09-13T03:07:44;96473.50;;;13.72;88.54
9139;BME280;4604;48.616;9.548;2022-09-13T03:10:13;96515.53;;;13.99;88.29
9139;BME280;4604;48.616;9.548;2022-09-13T03:12:58;96514.25;;;13.87;88.72
9139;BME280;4604;48.616;9.548;2022-09-13T03:15:41;96514.59;;;13.84;89.04
9139;BME280;4604;48.616;9.548;2022-09-13T03:18:22;96507.13;;;13.79;89.53
9139;BME280;4604;48.616;9.548;2022-09-13T03:21:01;96502.53;;;13.73;89.79
9139;BME280;4604;48.616;9.548;2022-09-13T03:23:41;96508.66;;;13.74;89.98
9139;BME280;4604;48.616;9.548;2022-09-13T03:26:21;96515.59;;;13.75;90.16
9139;BME280;4604;48.616;9.548;2022-09-13T03:28:55;96508.69;;;13.57;91.09
9139;BME280;4604;48.616;9.548;2022-09-13T03:31:32;96512.50;;;13.55;91.65
9139;BME280;4604;48.616;9.548;2022-09-13T03:34:08;96508.00;;;13.55;91.85
9139;BME280;4604;48.616;9.548;2022-09-13T03:36:40;96499.38;;;13.53;92.39
9139;BME280;4604;48.616;9.548;2022-09-13T03:39:11;96494.28;;;13.52;92.27
9139;BME280;4604;48.616;9.548;2022-09-13T03:41:44;96489.31;;;13.48;92.69
9139;BME280;4604;48.616;9.548;2022-09-13T03:44:15;96482.84;;;13.51;92.62
9139;BME280;4604;48.616;9.548;2022-09-13T03:46:46;96480.19;;;13.51;92.82
9139;BME280;4604;48.616;9.548;2022-09-13T03:49:17;96476.06;;;13.48;92.97
9139;BME280;4604;48.616;9.548;2022-09-13T03:51:46;96467.75;;;13.43;92.89
9139;BME280;4604;48.616;9.548;2022-09-13T03:54:18;96472.94;;;13.37;93.46
9139;BME280;4604;48.616;9.548;2022-09-13T03:57:10;96465.81;;;13.37;94.24
9139;BME280;4604;48.616;9.548;2022-09-13T03:59:38;96464.13;;;13.36;94.61
9139;BME280;4604;48.616;9.548;2022-09-13T04:02:07;96476.41;;;13.37;95.00
9139;BME280;4604;48.616;9.548;2022-09-13T04:04:38;96464.31;;;13.35;94.67
9139;BME280;4604;48.616;9.548;2022-09-13T04:07:05;96467.94;;;13.34;95.53
9139;BME280;4604;48.616;9.548;2022-09-13T04:09:32;96472.06;;;13.36;96.17
9139;BME280;4604;48.616;9.548;2022-09-13T04:12:06;96480.88;;;13.37;96.51
9139;BME280;4604;48.616;9.548;2022-09-13T04:14:34;96481.19;;;13.42;97.34
9139;BME280;4604;48.616;9.548;2022-09-13T04:17:01;96480.84;;;13.45;97.54
9139;BME280;4604;48.616;9.548;2022-09-13T04:19:28;96473.91;;;13.44;97.93
9139;BME280;4604;48.616;9.548;2022-09-13T04:21:57;96464.47;;;13.41;97.80
9139;BME280;4604;48.616;9.548;2022-09-13T04:24:25;96484.84;;;13.49;97.93
9139;BME280;4604;48.616;9.548;2022-09-13T04:26:53;96480.34;;;13.49;97.82
9139;BME280;4604;48.616;9.548;2022-09-13T04:29:21;96474.03;;;13.51;97.35
9139;BME280;4604;48.616;9.548;2022-09-13T04:31:50;96476.22;;;13.47;96.44
9139;BME280;4604;48.616;9.548;2022-09-13T04:34:17;96475.91;;;13.42;96.15
9139;BME280;4604;48.616;9.548;2022-09-13T04:36:46;96480.88;;;13.37;96.11
9139;BME280;4604;48.616;9.548;2022-09-13T04:39:14;96475.25;;;13.32;96.19
9139;BME280;4604;48.616;9.548;2022-09-13T04:41:41;96485.81;;;13.23;96.49
9139;BME280;4604;48.616;9.548;2022-09-13T04:44:09;96482.16;;;13.16;97.14
9139;BME280;4604;48.616;9.548;2022-09-13T04:46:36;96491.78;;;13.17;97.09
9139;BME280;4604;48.616;9.548;2022-09-13T04:49:04;96484.66;;;13.18;97.60
9139;BME280;4604;48.616;9.548;2022-09-13T04:51:31;96478.19;;;13.20;97.51
9139;BME280;4604;48.616;9.548;2022-09-13T04:53:58;96493.75;;;13.23;97.32
9139;BME280;4604;48.616;9.548;2022-09-13T04:56:26;96498.75;;;13.18;96.88
9139;BME280;4604;48.616;9.548;2022-09-13T04:58:54;96514.63;;;13.18;97.27
9139;BME280;4604;48.616;9.548;2022-09-13T05:01:21;96503.38;;;13.16;97.94
9139;BME280;4604;48.616;9.548;2022-09-13T05:03:50;96505.72;;;13.19;98.42
9139;BME280;4604;48.616;9.548;2022-09-13T05:06:17;96505.88;;;13.18;98.96
9139;BME280;4604;48.616;9.548;2022-09-13T05:08:44;96505.53;;;13.21;98.51
9139;BME280;4604;48.616;9.548;2022-09-13T05:11:15;96495.75;;;13.21;98.13
9139;BME280;4604;48.616;9.548;2022-09-13T05:13:48;96490.78;;;13.18;97.69
9139;BME280;4604;48.616;9.548;2022-09-13T05:16:19;96494.44;;;13.34;97.25
9139;BME280;4604;48.616;9.548;2022-09-13T05:18:46;96487.16;;;13.36;97.31
9139;BME280;4604;48.616;9.548;2022-09-13T05:21:13;96494.13;;;13.45;97.58
9139;BME280;4604;48.616;9.548;2022-09-13T05:23:40;96482.84;;;13.43;97.96
9139;BME280;4604;48.616;9.548;2022-09-13T05:26:07;96497.59;;;13.54;98.32
9139;BME280;4604;48.616;9.548;2022-09-13T05:28:35;96508.34;;;13.52;98.80
9139;BME280;4604;48.616;9.548;2022-09-13T05:31:09;96509.38;;;13.51;99.88
9139;BME280;4604;48.616;9.548;2022-09-13T05:33:38;96492.94;;;13.56;100.00
9139;BME280;4604;48.616;9.548;2022-09-13T05:36:05;96504.31;;;13.81;100.00
9139;BME280;4604;48.616;9.548;2022-09-13T05:38:32;96521.97;;;14.13;99.90
9139;BME280;4604;48.616;9.548;2022-09-13T05:41:01;96528.72;;;14.24;100.00
9139;BME280;4604;48.616;9.548;2022-09-13T05:43:29;96525.94;;;14.17;100.00
9139;BME280;4604;48.616;9.548;2022-09-13T05:46:03;96545.19;;;14.19;100.00
9139;BME280;4604;48.616;9.548;2022-09-13T05:48:32;96547.69;;;14.12;100.00
9139;BME280;4604;48.616;9.548;2022-09-13T05:51:07;96539.38;;;14.16;100.00
9139;BME280;4604;48.616;9.548;2022-09-13T05:53:34;96533.41;;;14.13;100.00
9139;BME280;4604;48.616;9.548;2022-09-13T05:56:05;96522.63;;;14.07;100.00
9139;BME280;4604;48.616;9.548;2022-09-13T05:58:32;96540.38;;;14.15;100.00
9139;BME280;4604;48.616;9.548;2022-09-13T06:01:00;96543.00;;;14.23;100.00
9139;BME280;4604;48.616;9.548;2022-09-13T06:03:26;96539.47;;;14.30;99.90
9139;BME280;4604;48.616;9.548;2022-09-13T06:05:56;96531.72;;;14.29;99.70
9139;BME280;4604;48.616;9.548;2022-09-13T06:08:23;96536.63;;;14.40;99.87
9139;BME280;4604;48.616;9.548;2022-09-13T06:10:54;96541.41;;;14.45;99.65
9139;BME280;4604;48.616;9.548;2022-09-13T06:13:21;96549.19;;;14.54;99.49
9139;BME280;4604;48.616;9.548;2022-09-13T06:15:48;96541.22;;;14.54;99.26
9139;BME280;4604;48.616;9.548;2022-09-13T06:18:15;96546.38;;;14.56;99.63
9139;BME280;4604;48.616;9.548;2022-09-13T06:20:42;96545.00;;;14.60;99.69
9139;BME280;4604;48.616;9.548;2022-09-13T06:23:10;96531.88;;;14.67;99.51
9139;BME280;4604;48.616;9.548;2022-09-13T06:25:37;96524.50;;;14.77;99.06
9139;BME280;4604;48.616;9.548;2022-09-13T06:28:05;96520.66;;;14.80;99.08
9139;BME280;4604;48.616;9.548;2022-09-13T06:30:32;96531.19;;;14.96;98.45
9139;BME280;4604;48.616;9.548;2022-09-13T06:32:59;96527.00;;;15.02;98.02
9139;BME280;4604;48.616;9.548;2022-09-13T06:35:26;96536.41;;;15.12;97.85
9139;BME280;4604;48.616;9.548;2022-09-13T06:37:54;96538.19;;;15.20;97.26
9139;BME280;4604;48.616;9.548;2022-09-13T06:40:23;96548.69;;;15.36;96.35
9139;BME280;4604;48.616;9.548;2022-09-13T06:42:50;96547.88;;;15.51;95.21
9139;BME280;4604;48.616;9.548;2022-09-13T06:45:17;96546.34;;;15.79;93.22
9139;BME280;4604;48.616;9.548;2022-09-13T06:47:44;96538.19;;;15.96;91.38
9139;BME280;4604;48.616;9.548;2022-09-13T06:50:11;96538.94;;;16.19;87.86
9139;BME280;4604;48.616;9.548;2022-09-13T06:52:38;96549.38;;;16.80;85.45
9139;BME280;4604;48.616;9.548;2022-09-13T06:55:05;96552.84;;;16.81;83.44
9139;BME280;4604;48.616;9.548;2022-09-13T06:57:33;96553.56;;;16.75;84.33
9139;BME280;4604;48.616;9.548;2022-09-13T07:00:00;96548.91;;;16.62;84.69
9139;BME280;4604;48.616;9.548;2022-09-13T07:02:27;96536.03;;;16.51;85.37
9139;BME280;4604;48.616;9.548;2022-09-13T07:04:54;96517.34;;;16.44;85.42
9139;BME280;4604;48.616;9.548;2022-09-13T07:07:20;96535.84;;;16.67;84.97
9139;BME280;4604;48.616;9.548;2022-09-13T07:09:47;96529.56;;;16.75;84.33
9139;BME280;4604;48.616;9.548;2022-09-13T07:12:14;96538.97;;;16.85;83.62
9139;BME280;4604;48.616;9.548;2022-09-13T07:14:42;96540.13;;;16.98;82.93
9139;BME280;4604;48.616;9.548;2022-09-13T07:17:08;96537.97;;;17.08;82.31
9139;BME280;4604;48.616;9.548;2022-09-13T07:19:35;96538.66;;;17.17;81.63
9139;BME280;4604;48.616;9.548;2022-09-13T07:22:02;96538.63;;;17.31;80.83
9139;BME280;4604;48.616;9.548;2022-09-13T07:24:29;96534.03;;;17.47;80.19
9139;BME280;4604;48.616;9.548;2022-09-13T07:26:56;96536.84;;;17.67;79.58
9139;BME280;4604;48.616;9.548;2022-09-13T07:29:23;96527.16;;;17.87;78.55
9139;BME280;4604;48.616;9.548;2022-09-13T07:31:52;96529.13;;;18.07;77.76
9139;BME280;4604;48.616;9.548;2022-09-13T07:34:21;96532.31;;;18.17;76.95
9139;BME280;4604;48.616;9.548;2022-09-13T07:36:48;96527.56;;;18.19;75.71
9139;BME280;4604;48.616;9.548;2022-09-13T07:39:16;96529.22;;;18.20;75.69
9139;BME280;4604;48.616;9.548;2022-09-13T07:41:43;96526.38;;;18.22;75.41
9139;BME280;4604;48.616;9.548;2022-09-13T07:44:11;96528.41;;;18.20;75.19
9139;BME280;4604;48.616;9.548;2022-09-13T07:46:38;96530.69;;;18.23;75.24
9139;BME280;4604;48.616;9.548;2022-09-13T07:49:08;96528.66;;;18.25;75.28
9139;BME280;4604;48.616;9.548;2022-09-13T07:51:37;96529.50;;;18.32;75.26
9139;BME280;4604;48.616;9.548;2022-09-13T07:54:05;96525.28;;;18.51;74.88
9139;BME280;4604;48.616;9.548;2022-09-13T07:56:34;96523.28;;;18.66;73.96
9139;BME280;4604;48.616;9.548;2022-09-13T07:59:05;96512.88;;;18.78;73.03
9139;BME280;4604;48.616;9.548;2022-09-13T08:01:34;96514.75;;;18.91;72.10
9139;BME280;4604;48.616;9.548;2022-09-13T08:04:07;96527.72;;;18.94;71.79
9139;BME280;4604;48.616;9.548;2022-09-13T08:06:35;96511.50;;;19.02;70.64
9139;BME280;4604;48.616;9.548;2022-09-13T08:09:05;96491.75;;;19.10;72.39
9139;BME280;4604;48.616;9.548;2022-09-13T08:11:34;96488.88;;;19.31;72.79
9139;BME280;4604;48.616;9.548;2022-09-13T08:14:09;96487.22;;;19.50;72.10
9139;BME280;4604;48.616;9.548;2022-09-13T08:16:36;96505.19;;;19.76;70.94
9139;BME280;4604;48.616;9.548;2022-09-13T08:19:05;96504.53;;;19.94;70.65
9139;BME280;4604;48.616;9.548;2022-09-13T08:21:35;96502.22;;;20.11;70.74
9139;BME280;4604;48.616;9.548;2022-09-13T08:24:04;96499.34;;;20.19;69.28
9139;BME280;4604;48.616;9.548;2022-09-13T08:26:32;96487.13;;;20.37;69.09
9139;BME280;4604;48.616;9.548;2022-09-13T08:29:01;96489.75;;;20.57;68.81
9139;BME280;4604;48.616;9.548;2022-09-13T08:31:29;96479.41;;;20.60;68.34
9139;BME280;4604;48.616;9.548;2022-09-13T08:33:56;96502.06;;;20.64;69.23
9139;BME280;4604;48.616;9.548;2022-09-13T08:36:24;96499.34;;;20.78;69.42
9139;BME280;4604;48.616;9.548;2022-09-13T08:38:53;96507.47;;;21.03;67.63
9139;BME280;4604;48.616;9.548;2022-09-13T08:41:49;96513.25;;;21.00;67.63
9139;BME280;4604;48.616;9.548;2022-09-13T08:44:25;96512.31;;;20.87;69.45
9139;BME280;4604;48.616;9.548;2022-09-13T08:46:58;96515.44;;;20.78;70.39
9139;BME280;4604;48.616;9.548;2022-09-13T08:49:34;96505.94;;;20.75;68.32
9139;BME280;4604;48.616;9.548;2022-09-13T08:52:26;96517.22;;;20.90;68.56
9139;BME280;4604;48.616;9.548;2022-09-13T08:54:55;96497.44;;;20.85;70.24
9139;BME280;4604;48.616;9.548;2022-09-13T08:57:25;96498.66;;;20.89;71.45
9139;BME280;4604;48.616;9.548;2022-09-13T09:00:01;96489.06;;;21.06;71.75
9139;BME280;4604;48.616;9.548;2022-09-13T09:02:47;96493.09;;;21.22;70.38
9139;BME280;4604;48.616;9.548;2022-09-13T09:05:19;96501.47;;;21.32;69.30
9139;BME280;4604;48.616;9.548;2022-09-13T09:07:49;96492.59;;;21.32;67.99
9139;BME280;4604;48.616;9.548;2022-09-13T09:10:21;96494.47;;;21.31;66.56
9139;BME280;4604;48.616;9.548;2022-09-13T09:12:53;96500.09;;;21.55;66.47
9139;BME280;4604;48.616;9.548;2022-09-13T09:15:23;96497.81;;;22.02;64.40
9139;BME280;4604;48.616;9.548;2022-09-13T09:17:56;96492.50;;;21.95;64.48
9139;BME280;4604;48.616;9.548;2022-09-13T09:20:29;96495.66;;;22.11;63.14
9139;BME280;4604;48.616;9.548;2022-09-13T09:23:01;96490.66;;;22.14;62.97
9139;BME280;4604;48.616;9.548;2022-09-13T09:25:30;96489.13;;;22.25;62.29
9139;BME280;4604;48.616;9.548;2022-09-13T09:27:58;96482.25;;;22.48;60.34
9139;BME280;4604;48.616;9.548;2022-09-13T09:30:34;96478.59;;;22.42;59.88
9139;BME280;4604;48.616;9.548;2022-09-13T09:33:23;96476.34;;;22.39;58.54
9139;BME280;4604;48.616;9.548;2022-09-13T09:35:57;96474.69;;;22.56;58.54
9139;BME280;4604;48.616;9.548;2022-09-13T09:38:34;96457.19;;;22.65;56.90
9139;BME280;4604;48.616;9.548;2022-09-13T09:41:14;96457.41;;;22.94;54.39
9139;BME280;4604;48.616;9.548;2022-09-13T09:43:47;96467.19;;;23.49;53.44
9139;BME280;4604;48.616;9.548;2022-09-13T09:46:21;96459.91;;;23.61;53.74
9139;BME280;4604;48.616;9.548;2022-09-13T09:48:53;96455.56;;;23.72;53.04
9139;BME280;4604;48.616;9.548;2022-09-13T09:51:23;96462.97;;;23.65;53.70
9139;BME280;4604;48.616;9.548;2022-09-13T09:53:57;96465.66;;;23.65;53.77
9139;BME280;4604;48.616;9.548;2022-09-13T09:56:30;96457.31;;;23.43;53.13
9139;BME280;4604;48.616;9.548;2022-09-13T09:58:57;96462.38;;;23.51;53.26
9139;BME280;4604;48.616;9.548;2022-09-13T10:01:26;96469.63;;;23.62;54.58
9139;BME280;4604;48.616;9.548;2022-09-13T10:04:01;96466.72;;;23.64;55.55
9139;BME280;4604;48.616;9.548;2022-09-13T10:06:30;96467.88;;;23.56;55.75
9139;BME280;4604;48.616;9.548;2022-09-13T10:09:00;96461.78;;;23.72;56.16
9139;BME280;4604;48.616;9.548;2022-09-13T10:11:42;96464.13;;;24.16;53.83
9139;BME280;4604;48.616;9.548;2022-09-13T10:17:16;96474.41;;;24.43;51.07
9139;BME280;4604;48.616;9.548;2022-09-13T10:19:53;96478.53;;;24.33;50.57
9139;BME280;4604;48.616;9.548;2022-09-13T10:22:22;96488.88;;;24.48;51.77
9139;BME280;4604;48.616;9.548;2022-09-13T10:24:49;96499.94;;;24.75;52.50
9139;BME280;4604;48.616;9.548;2022-09-13T10:27:23;96495.25;;;24.71;52.11
9139;BME280;4604;48.616;9.548;2022-09-13T10:29:52;96494.56;;;24.64;51.23
9139;BME280;4604;48.616;9.548;2022-09-13T10:32:24;96501.78;;;24.46;52.25
9139;BME280;4604;48.616;9.548;2022-09-13T10:34:51;96492.59;;;24.59;53.03
9139;BME280;4604;48.616;9.548;2022-09-13T10:37:21;96497.91;;;24.19;52.83
9139;BME280;4604;48.616;9.548;2022-09-13T10:39:54;96499.75;;;24.42;52.83
9139;BME280;4604;48.616;9.548;2022-09-13T10:42:26;96503.47;;;24.64;51.32
9139;BME280;4604;48.616;9.548;2022-09-13T10:44:56;96497.47;;;24.74;51.50
9139;BME280;4604;48.616;9.548;2022-09-13T10:47:26;96493.31;;;24.54;51.48
9139;BME280;4604;48.616;9.548;2022-09-13T10:49:56;96488.38;;;24.51;51.33
9139;BME280;4604;48.616;9.548;2022-09-13T10:52:30;96489.38;;;24.74;49.80
9139;BME280;4604;48.616;9.548;2022-09-13T10:55:34;96484.75;;;24.86;49.89
9139;BME280;4604;48.616;9.548;2022-09-13T10:58:16;96467.88;;;24.79;49.68
9139;BME280;4604;48.616;9.548;2022-09-13T11:06:45;96471.22;;;25.44;47.54
9139;BME280;4604;48.616;9.548;2022-09-13T11:09:16;96472.41;;;25.36;48.07
9139;BME280;4604;48.616;9.548;2022-09-13T11:11:50;96479.50;;;25.54;47.09
9139;BME280;4604;48.616;9.548;2022-09-13T11:14:36;96480.63;;;25.58;47.49
9139;BME280;4604;48.616;9.548;2022-09-13T11:17:18;96464.41;;;25.75;46.83
9139;BME280;4604;48.616;9.548;2022-09-13T11:20:12;96476.94;;;25.64;46.15
9139;BME280;4604;48.616;9.548;2022-09-13T11:23:02;96475.47;;;25.39;45.99
9139;BME280;4604;48.616;9.548;2022-09-13T11:25:50;96468.31;;;25.33;47.23
9139;BME280;4604;48.616;9.548;2022-09-13T11:28:31;96464.09;;;25.71;46.02
9139;BME280;4604;48.616;9.548;2022-09-13T11:31:11;96456.88;;;25.60;45.82
9139;BME280;4604;48.616;9.548;2022-09-13T11:33:50;96458.53;;;25.95;45.37
9139;BME280;4604;48.616;9.548;2022-09-13T11:36:48;96460.75;;;26.20;45.06
9139;BME280;4604;48.616;9.548;2022-09-13T11:39:28;96457.88;;;26.26;44.96
9139;BME280;4604;48.616;9.548;2022-09-13T11:42:03;96456.97;;;26.21;45.69
9139;BME280;4604;48.616;9.548;2022-09-13T11:47:54;96459.50;;;26.50;43.27
9139;BME280;4604;48.616;9.548;2022-09-13T11:50:34;96464.09;;;26.49;42.82
9139;BME280;4604;48.616;9.548;2022-09-13T11:53:25;96451.31;;;26.44;43.90
9139;BME280;4604;48.616;9.548;2022-09-13T11:55:58;96453.47;;;26.64;44.18
9139;BME280;4604;48.616;9.548;2022-09-13T11:58:30;96458.91;;;26.64;42.48
9139;BME280;4604;48.616;9.548;2022-09-13T12:01:01;96467.00;;;26.86;42.90
9139;BME280;4604;48.616;9.548;2022-09-13T12:03:37;96446.88;;;27.04;41.92
9139;BME280;4604;48.616;9.548;2022-09-13T12:06:10;96453.22;;;26.88;42.03
9139;BME280;4604;48.616;9.548;2022-09-13T12:08:41;96457.94;;;26.76;42.17
9139;BME280;4604;48.616;9.548;2022-09-13T12:11:11;96458.00;;;26.81;42.76
9139;BME280;4604;48.616;9.548;2022-09-13T12:13:42;96440.13;;;26.58;43.58
9139;BME280;4604;48.616;9.548;2022-09-13T12:16:15;96442.19;;;26.73;43.10
9139;BME280;4604;48.616;9.548;2022-09-13T12:18:47;96437.41;;;26.80;42.71
9139;BME280;4604;48.616;9.548;2022-09-13T12:21:18;96436.47;;;26.69;43.28
9139;BME280;4604;48.616;9.548;2022-09-13T12:23:50;96437.09;;;26.76;42.40
9139;BME280;4604;48.616;9.548;2022-09-13T12:26:23;96427.75;;;26.62;42.27
9139;BME280;4604;48.616;9.548;2022-09-13T12:28:54;96430.56;;;26.72;42.23
9139;BME280;4604;48.616;9.548;2022-09-13T12:31:25;96419.44;;;26.68;42.67
9139;BME280;4604;48.616;9.548;2022-09-13T12:33:54;96421.63;;;26.72;43.12
9139;BME280;4604;48.616;9.548;2022-09-13T12:39:37;96429.34;;;27.12;43.69
9139;BME280;4604;48.616;9.548;2022-09-13T12:45:16;96430.22;;;26.90;42.58
9139;BME280;4604;48.616;9.548;2022-09-13T12:47:55;96439.47;;;26.95;43.09
9139;BME280;4604;48.616;9.548;2022-09-13T12:50:51;96426.53;;;27.29;40.59
9139;BME280;4604;48.616;9.548;2022-09-13T12:53:34;96430.28;;;27.23;41.06
9139;BME280;4604;48.616;9.548;2022-09-13T12:56:31;96442.19;;;26.95;41.01
9139;BME280;4604;48.616;9.548;2022-09-13T12:59:23;96439.91;;;26.86;41.62
9139;BME280;4604;48.616;9.548;2022-09-13T13:01:52;96426.41;;;26.92;42.08
9139;BME280;4604;48.616;9.548;2022-09-13T13:04:22;96430.50;;;27.21;41.61
9139;BME280;4604;48.616;9.548;2022-09-13T13:06:54;96435.44;;;26.97;41.44
9139;BME280;4604;48.616;9.548;2022-09-13T13:09:24;96423.03;;;27.06;41.41
9139;BME280;4604;48.616;9.548;2022-09-13T13:11:54;96412.25;;;27.11;41.22
9139;BME280;4604;48.616;9.548;2022-09-13T13:14:43;96405.59;;;27.19;40.81
9139;BME280;4604;48.616;9.548;2022-09-13T13:20:44;96386.69;;;26.97;41.57
9139;BME280;4604;48.616;9.548;2022-09-13T13:23:20;96385.16;;;27.11;40.94
9139;BME280;4604;48.616;9.548;2022-09-13T13:26:10;96379.00;;;26.89;41.45
9139;BME280;4604;48.616;9.548;2022-09-13T13:29:02;96377.22;;;27.00;41.77
9139;BME280;4604;48.616;9.548;2022-09-13T13:31:35;96365.91;;;27.08;41.28
9139;BME280;4604;48.616;9.548;2022-09-13T13:36:55;96363.63;;;27.22;41.37
9139;BME280;4604;48.616;9.548;2022-09-13T13:39:38;96352.06;;;27.37;40.99
9139;BME280;4604;48.616;9.548;2022-09-13T13:42:23;96344.97;;;27.30;40.85
9139;BME280;4604;48.616;9.548;2022-09-13T13:45:16;96346.19;;;27.50;41.01
9139;BME280;4604;48.616;9.548;2022-09-13T13:51:21;96344.66;;;27.64;41.27
9139;BME280;4604;48.616;9.548;2022-09-13T13:53:55;96341.00;;;27.86;41.08
9139;BME280;4604;48.616;9.548;2022-09-13T13:56:32;96354.19;;;27.77;42.03
9139;BME280;4604;48.616;9.548;2022-09-13T13:59:03;96347.03;;;27.98;40.74
9139;BME280;4604;48.616;9.548;2022-09-13T14:01:33;96336.50;;;28.07;41.13
9139;BME280;4604;48.616;9.548;2022-09-13T14:07:05;96333.34;;;28.46;39.71
9139;BME280;4604;48.616;9.548;2022-09-13T14:09:41;96326.88;;;28.57;40.03
9139;BME280;4604;48.616;9.548;2022-09-13T14:12:31;96323.59;;;28.55;39.91
9139;BME280;4604;48.616;9.548;2022-09-13T14:15:19;96322.44;;;28.25;39.08
9139;BME280;4604;48.616;9.548;2022-09-13T14:20:59;96318.56;;;28.06;40.12
9139;BME280;4604;48.616;9.548;2022-09-13T14:23:29;96321.28;;;28.11;40.86
9139;BME280;4604;48.616;9.548;2022-09-13T14:25:57;96323.47;;;28.14;40.31